Time;durP1;ratioP1;P1;durP2;ratioP2;P2;SDS_P1;SDS_P2;PMS_P1;PMS_P2;Temp;Humidity;BMP_temperature;BMP_pressure;BME280_temperature;BME280_humidity;BME280_pressure;Samples;Min_cycle;Max_cycle;Signal;HPM_P1;HPM_P2
2023/12/02 00:01:21;;;;;;;12.10;6.33;;;;;0.50;94708.00;;;;8398155;28;20200;-85
2023/12/02 00:05:24;;;;;;;18.07;6.50;;;;;0.50;94702.00;;;;8397924;28;20224;-86
2023/12/02 00:09:29;;;;;;;4.43;3.53;;;;;0.50;94692.00;;;;8397974;28;20196;-84
2023/12/02 00:13:32;;;;;;;9.23;4.77;;;;;0.40;94694.00;;;;8398131;28;20196;-86
2023/12/02 00:17:36;;;;;;;11.13;5.63;;;;;0.40;94702.00;;;;8398104;28;20688;-83
2023/12/02 00:21:39;;;;;;;10.63;5.67;;;;;0.40;94694.00;;;;8397975;28;20245;-83
2023/12/02 00:25:43;;;;;;;16.10;7.80;;;;;0.40;94697.00;;;;8397049;28;20631;-82
2023/12/02 00:29:46;;;;;;;11.80;4.10;;;;;0.30;94709.00;;;;8397422;28;20289;-83
2023/12/02 00:33:50;;;;;;;4.93;4.03;;;;;0.30;94683.00;;;;8397857;28;20203;-84
2023/12/02 00:37:53;;;;;;;13.93;6.33;;;;;0.30;94693.00;;;;8397131;28;20298;-84
2023/12/02 00:41:57;;;;;;;13.10;4.47;;;;;0.30;94707.00;;;;8397648;28;20225;-85
2023/12/02 00:46:04;;;;;;;10.90;4.80;;;;;0.40;94711.00;;;;8397951;28;20188;-84
2023/12/02 00:50:08;;;;;;;12.70;4.83;;;;;0.30;94699.00;;;;8398097;28;20533;-84
2023/12/02 00:54:11;;;;;;;7.83;4.90;;;;;0.30;94689.00;;;;8397593;28;20234;-84
2023/12/02 00:58:16;;;;;;;23.73;9.97;;;;;0.30;94715.00;;;;8397883;28;20217;-85
2023/12/02 01:02:30;;;;;;;6.30;2.37;;;;;0.30;94729.00;;;;8398877;28;20309;-85
2023/12/02 01:06:33;;;;;;;23.83;10.20;;;;;0.40;94705.00;;;;8404350;28;20279;-84
2023/12/02 01:10:36;;;;;;;11.20;6.50;;;;;0.30;94714.00;;;;8403596;28;20247;-84
2023/12/02 01:14:40;;;;;;;16.07;7.23;;;;;0.30;94715.00;;;;8403704;28;20288;-84
2023/12/02 01:18:43;;;;;;;8.97;5.53;;;;;0.30;94716.00;;;;8403229;28;20278;-83
2023/12/02 01:22:47;;;;;;;14.20;5.70;;;;;0.30;94708.00;;;;8402822;28;20192;-83
2023/12/02 01:26:50;;;;;;;15.27;5.27;;;;;0.30;94719.00;;;;8404087;28;20643;-82
2023/12/02 01:30:54;;;;;;;9.77;4.70;;;;;0.40;94707.00;;;;8402518;28;20529;-83
2023/12/02 01:34:57;;;;;;;13.83;6.33;;;;;0.30;94706.00;;;;8400430;28;20220;-82
2023/12/02 01:39:00;;;;;;;20.00;6.97;;;;;0.30;94715.00;;;;8401945;28;20221;-81
2023/12/02 01:43:04;;;;;;;14.47;5.40;;;;;0.30;94720.00;;;;8403071;28;20201;-81
2023/12/02 01:47:09;;;;;;;17.47;6.00;;;;;0.30;94725.00;;;;8401578;28;20196;-80
2023/12/02 01:51:12;;;;;;;15.47;7.07;;;;;0.20;94730.00;;;;8402228;28;20656;-80
2023/12/02 01:55:15;;;;;;;16.03;7.10;;;;;0.30;94730.00;;;;8401886;28;20638;-80
2023/12/02 01:59:19;;;;;;;15.17;6.73;;;;;0.20;94725.00;;;;8402056;28;20237;-79
2023/12/02 02:03:24;;;;;;;14.23;6.07;;;;;0.20;94706.00;;;;8401282;28;20219;-79
2023/12/02 02:07:27;;;;;;;8.43;2.93;;;;;0.20;94712.00;;;;8402018;28;20749;-79
2023/12/02 02:11:30;;;;;;;9.50;4.17;;;;;0.20;94699.00;;;;8401253;28;20621;-79
2023/12/02 02:15:34;;;;;;;6.83;3.77;;;;;0.20;94711.00;;;;8400824;28;20545;-79
2023/12/02 02:19:38;;;;;;;17.00;5.70;;;;;0.20;94707.00;;;;8401913;28;20568;-79
2023/12/02 02:23:43;;;;;;;5.97;3.07;;;;;0.20;94710.00;;;;8400975;28;20193;-78
2023/12/02 02:27:46;;;;;;;5.60;4.00;;;;;0.20;94707.00;;;;8400165;28;20227;-78
2023/12/02 02:31:49;;;;;;;7.87;4.97;;;;;0.20;94703.00;;;;8401112;28;20288;-78
2023/12/02 02:35:52;;;;;;;6.77;4.23;;;;;0.20;94700.00;;;;8401069;28;20260;-79
2023/12/02 02:39:57;;;;;;;6.80;4.00;;;;;0.20;94698.00;;;;8400420;28;20632;-79
2023/12/02 02:44:00;;;;;;;7.07;3.77;;;;;0.20;94690.00;;;;8400800;28;20286;-80
2023/12/02 02:48:03;;;;;;;7.80;4.90;;;;;0.20;94688.00;;;;8400480;28;20636;-80
2023/12/02 02:52:07;;;;;;;7.90;3.93;;;;;0.20;94680.00;;;;8400354;28;20217;-80
2023/12/02 02:56:12;;;;;;;14.47;6.57;;;;;0.10;94697.00;;;;8398810;28;20302;-81
2023/12/02 03:00:16;;;;;;;10.57;4.60;;;;;0.20;94700.00;;;;8399886;28;20227;-81
2023/12/02 03:04:19;;;;;;;4.07;3.20;;;;;0.10;94684.00;;;;8401510;22;20236;-82
2023/12/02 03:08:23;;;;;;;5.30;3.70;;;;;0.10;94689.00;;;;8374248;28;20204;-80
2023/12/02 03:12:28;;;;;;;9.17;5.97;;;;;0.10;94685.00;;;;8375736;28;20644;-81
2023/12/02 03:16:31;;;;;;;7.13;3.97;;;;;0.10;94688.00;;;;8373914;28;20228;-80
2023/12/02 03:20:34;;;;;;;7.93;4.60;;;;;0.10;94699.00;;;;8374132;28;20201;-81
2023/12/02 03:24:37;;;;;;;17.43;6.80;;;;;0.10;94707.00;;;;8373539;28;20680;-80
2023/12/02 03:28:42;;;;;;;17.97;4.53;;;;;0.10;94688.00;;;;8374838;28;20206;-80
2023/12/02 03:32:45;;;;;;;13.80;5.77;;;;;0.10;94696.00;;;;8374585;28;20780;-80
2023/12/02 03:36:48;;;;;;;3.17;2.70;;;;;0.10;94698.00;;;;8374573;28;20779;-81
2023/12/02 03:40:51;;;;;;;9.83;4.53;;;;;0.10;94712.00;;;;8371765;28;20282;-81
2023/12/02 03:44:56;;;;;;;8.63;3.93;;;;;0.00;94710.00;;;;8376264;28;20208;-81
2023/12/02 03:48:59;;;;;;;6.50;3.63;;;;;0.00;94700.00;;;;8372896;28;20196;-81
2023/12/02 03:53:02;;;;;;;3.83;3.10;;;;;0.00;94701.00;;;;8375267;28;20196;-80
2023/12/02 03:57:06;;;;;;;14.87;6.53;;;;;0.00;94718.00;;;;8374875;28;20228;-80
2023/12/02 04:01:10;;;;;;;12.57;5.83;;;;;0.00;94715.00;;;;8371876;28;20224;-80
2023/12/02 04:05:14;;;;;;;7.73;4.53;;;;;0.00;94740.00;;;;8371745;28;20218;-80
2023/12/02 04:09:17;;;;;;;10.73;4.97;;;;;0.00;94735.00;;;;8370957;28;20192;-81
2023/12/02 04:13:20;;;;;;;11.57;4.77;;;;;0.00;94742.00;;;;8369601;28;20196;-81
2023/12/02 04:17:29;;;;;;;4.43;2.83;;;;;0.00;94731.00;;;;8369524;28;20945;-81
2023/12/02 04:21:32;;;;;;;4.67;3.17;;;;;0.00;94750.00;;;;8369244;28;20193;-81
2023/12/02 04:25:35;;;;;;;14.53;4.93;;;;;-0.10;94741.00;;;;8371183;28;20935;-81
2023/12/02 04:29:41;;;;;;;8.33;5.57;;;;;-0.10;94732.00;;;;8371672;28;20282;-80
2023/12/02 04:33:46;;;;;;;7.17;4.00;;;;;-0.10;94732.00;;;;8370440;28;20201;-81
2023/12/02 04:37:49;;;;;;;10.13;6.00;;;;;-0.10;94731.00;;;;8376571;28;20746;-81
2023/12/02 04:41:52;;;;;;;5.77;3.47;;;;;-0.10;94731.00;;;;8376427;28;20204;-81
2023/12/02 04:45:55;;;;;;;10.03;6.47;;;;;-0.10;94725.00;;;;8380665;28;20572;-80
2023/12/02 04:50:00;;;;;;;8.83;4.20;;;;;-0.20;94725.00;;;;8378119;28;20717;-81
2023/12/02 04:54:03;;;;;;;10.53;5.47;;;;;-0.20;94701.00;;;;8379071;28;20196;-81
2023/12/02 04:58:07;;;;;;;6.30;3.00;;;;;-0.20;94705.00;;;;8373292;28;20232;-81
2023/12/02 05:02:10;;;;;;;6.67;4.40;;;;;-0.20;94734.00;;;;8376220;28;20310;-80
2023/12/02 05:06:17;;;;;;;14.60;5.43;;;;;-0.20;94739.00;;;;8375663;28;20205;-80
2023/12/02 05:10:20;;;;;;;8.17;4.67;;;;;-0.20;94770.00;;;;8375922;28;20674;-81
2023/12/02 05:14:23;;;;;;;4.53;3.10;;;;;-0.20;94803.00;;;;8377760;28;20203;-81
2023/12/02 05:18:26;;;;;;;13.67;3.67;;;;;-0.20;94790.00;;;;8375030;28;20254;-81
2023/12/02 05:22:31;;;;;;;3.00;2.00;;;;;-0.20;94796.00;;;;8374861;28;20214;-82
2023/12/02 05:26:34;;;;;;;14.17;6.73;;;;;-0.20;94782.00;;;;8377523;28;20195;-81
2023/12/02 05:30:37;;;;;;;6.80;4.00;;;;;-0.20;94778.00;;;;8374978;28;20307;-81
2023/12/02 05:34:40;;;;;;;2.87;2.57;;;;;-0.20;94774.00;;;;8377225;28;20204;-80
2023/12/02 05:38:45;;;;;;;3.03;2.73;;;;;-0.20;94781.00;;;;8375836;28;20285;-80
2023/12/02 05:42:48;;;;;;;13.60;4.73;;;;;-0.20;94772.00;;;;8376515;28;20667;-79
2023/12/02 05:46:51;;;;;;;5.13;3.60;;;;;-0.30;94765.00;;;;8375264;28;20293;-80
2023/12/02 05:50:54;;;;;;;3.60;3.27;;;;;-0.30;94775.00;;;;8376087;28;20283;-79
2023/12/02 05:54:59;;;;;;;7.63;3.67;;;;;-0.30;94746.00;;;;8375242;28;20200;-80
2023/12/02 05:59:02;;;;;;;4.67;2.83;;;;;-0.40;94764.00;;;;8374522;28;20255;-80
2023/12/02 06:03:05;;;;;;;7.80;3.60;;;;;-0.40;94766.00;;;;8374788;28;20252;-79
2023/12/02 06:07:08;;;;;;;13.17;4.50;;;;;-0.40;94794.00;;;;8376667;28;20297;-80
2023/12/02 06:11:13;;;;;;;5.93;4.13;;;;;-0.40;94807.00;;;;8375031;28;20621;-81
2023/12/02 06:15:16;;;;;;;9.07;4.30;;;;;-0.30;94843.00;;;;8374142;28;20213;-79
2023/12/02 06:19:20;;;;;;;11.20;6.30;;;;;-0.40;94857.00;;;;8374330;28;20223;-81
2023/12/02 06:23:24;;;;;;;5.53;4.03;;;;;-0.30;94858.00;;;;8374701;28;20202;-81
2023/12/02 06:27:29;;;;;;;11.60;6.53;;;;;-0.30;94852.00;;;;8372518;28;20245;-80
2023/12/02 06:31:33;;;;;;;10.10;5.40;;;;;-0.30;94844.00;;;;8371800;28;20645;-81
2023/12/02 06:35:36;;;;;;;6.40;4.87;;;;;-0.30;94843.00;;;;8371867;28;20214;-80
2023/12/02 06:39:39;;;;;;;18.47;6.30;;;;;-0.40;94836.00;;;;8372381;28;20259;-80
2023/12/02 06:43:43;;;;;;;6.90;3.87;;;;;-0.40;94833.00;;;;8375357;28;20758;-80
2023/12/02 06:47:46;;;;;;;25.93;9.37;;;;;-0.40;94831.00;;;;8372860;28;20285;-80
2023/12/02 06:51:50;;;;;;;9.57;4.13;;;;;-0.40;94839.00;;;;8374946;28;20247;-79
2023/12/02 06:55:53;;;;;;;7.40;3.77;;;;;-0.50;94862.00;;;;8372891;28;20279;-80
2023/12/02 06:59:57;;;;;;;11.37;6.03;;;;;-0.50;94866.00;;;;8365453;28;20227;-80
2023/12/02 07:04:02;;;;;;;7.57;4.37;;;;;-0.50;94866.00;;;;8365450;28;20223;-80
2023/12/02 07:08:08;;;;;;;10.07;5.33;;;;;-0.50;94859.00;;;;8372016;28;20264;-81
2023/12/02 07:12:11;;;;;;;6.07;3.97;;;;;-0.50;94867.00;;;;8381794;28;20346;-79
2023/12/02 07:16:16;;;;;;;9.23;3.80;;;;;-0.60;94869.00;;;;8370610;28;20204;-79
2023/12/02 07:20:19;;;;;;;8.03;3.37;;;;;-0.60;94882.00;;;;8368707;28;20711;-79
2023/12/02 07:24:22;;;;;;;4.70;2.93;;;;;-0.50;94892.00;;;;8369825;28;20959;-78
2023/12/02 07:28:26;;;;;;;9.00;4.17;;;;;-0.50;94894.00;;;;8371328;28;20189;-80
2023/12/02 07:32:33;;;;;;;4.13;2.70;;;;;-0.40;94899.00;;;;8371179;28;20227;-77
2023/12/02 07:36:36;;;;;;;5.23;3.60;;;;;-0.40;94902.00;;;;8367737;28;20266;-80
2023/12/02 07:40:39;;;;;;;2.67;2.43;;;;;-0.40;94909.00;;;;8366811;28;21778;-81
2023/12/02 07:44:42;;;;;;;4.87;3.87;;;;;-0.40;94918.00;;;;8372418;28;20197;-81
2023/12/02 07:48:47;;;;;;;7.17;4.03;;;;;-0.40;94950.00;;;;8369025;28;20219;-83
2023/12/02 07:52:50;;;;;;;16.90;6.53;;;;;-0.40;94947.00;;;;8374963;28;20962;-80
2023/12/02 07:56:54;;;;;;;9.27;4.90;;;;;-0.30;94964.00;;;;8370658;28;20236;-83
2023/12/02 08:00:57;;;;;;;12.40;5.93;;;;;-0.30;94978.00;;;;8365964;28;20236;-82
2023/12/02 08:05:02;;;;;;;17.30;6.37;;;;;-0.30;94982.00;;;;8369741;28;20255;-82
2023/12/02 08:09:08;;;;;;;5.03;2.83;;;;;-0.30;94982.00;;;;8371705;28;20201;-83
2023/12/02 08:13:11;;;;;;;5.37;3.40;;;;;-0.30;94985.00;;;;8368627;28;20209;-83
2023/12/02 08:17:15;;;;;;;3.97;3.67;;;;;-0.30;94982.00;;;;8369205;28;20286;-78
2023/12/02 08:21:19;;;;;;;6.43;4.20;;;;;-0.40;94979.00;;;;8366573;28;20230;-83
2023/12/02 08:25:22;;;;;;;16.70;4.47;;;;;-0.40;94985.00;;;;8371319;28;20199;-83
2023/12/02 08:29:26;;;;;;;23.70;6.20;;;;;-0.40;94989.00;;;;8368902;28;20193;-78
2023/12/02 08:33:30;;;;;;;6.30;3.50;;;;;-0.30;94988.00;;;;8367146;28;20192;-80
2023/12/02 08:37:34;;;;;;;9.67;2.80;;;;;-0.40;94989.00;;;;8370551;28;20241;-81
2023/12/02 08:41:37;;;;;;;8.40;3.60;;;;;-0.40;94996.00;;;;8368831;28;20235;-82
2023/12/02 08:45:41;;;;;;;3.23;2.97;;;;;-0.40;94985.00;;;;8371228;28;20211;-82
2023/12/02 08:49:44;;;;;;;6.97;3.37;;;;;-0.30;94996.00;;;;8367149;28;20521;-81
2023/12/02 08:53:52;;;;;;;11.50;6.13;;;;;-0.30;94995.00;;;;8372952;28;20286;-79
2023/12/02 08:57:55;;;;;;;8.10;5.30;;;;;-0.20;94994.00;;;;8373489;28;20317;-77
2023/12/02 09:01:58;;;;;;;8.67;5.13;;;;;-0.20;94986.00;;;;8370443;28;20312;-80
2023/12/02 09:06:03;;;;;;;6.80;4.40;;;;;-0.30;94990.00;;;;8371821;28;20666;-80
2023/12/02 09:10:09;;;;;;;5.93;2.70;;;;;-0.30;95004.00;;;;8369791;28;20291;-79
2023/12/02 09:14:12;;;;;;;12.40;6.50;;;;;-0.30;95014.00;;;;8371267;28;20281;-77
2023/12/02 09:18:29;;;;;;;9.67;5.50;;;;;-0.30;95003.00;;;;8366520;28;20274;-80
2023/12/02 09:22:49;;;;;;;14.10;5.73;;;;;-0.20;94996.00;;;;8367151;28;21154;-79
2023/12/02 09:26:54;;;;;;;11.87;5.90;;;;;-0.20;95003.00;;;;8376240;28;20200;-81
2023/12/02 09:31:03;;;;;;;5.10;2.63;;;;;-0.30;95001.00;;;;8373910;28;20202;-76
2023/12/02 09:35:12;;;;;;;5.50;3.27;;;;;-0.20;95025.00;;;;8373711;28;20260;-78
2023/12/02 09:39:48;;;;;;;6.40;4.33;;;;;-0.20;95026.00;;;;8372837;28;20288;-76
2023/12/02 09:44:15;;;;;;;13.80;5.57;;;;;-0.20;95030.00;;;;8374572;28;20198;-80
2023/12/02 09:48:23;;;;;;;6.03;4.23;;;;;-0.20;95032.00;;;;8370964;28;20300;-76
2023/12/02 09:52:43;;;;;;;20.20;8.43;;;;;-0.20;95027.00;;;;8371912;28;20195;-77
2023/12/02 09:56:53;;;;;;;10.37;3.63;;;;;-0.20;95022.00;;;;8370427;28;20204;-79
2023/12/02 10:01:04;;;;;;;13.67;6.43;;;;;-0.20;95042.00;;;;8372379;28;20255;-77
2023/12/02 10:05:11;;;;;;;6.80;3.70;;;;;-0.10;95037.00;;;;8370317;28;21196;-79
2023/12/02 10:09:39;;;;;;;16.07;6.77;;;;;-0.20;95031.00;;;;8372773;28;20205;-77
2023/12/02 10:13:53;;;;;;;9.53;5.53;;;;;-0.20;95037.00;;;;8368756;28;20201;-78
2023/12/02 10:18:06;;;;;;;16.17;6.37;;;;;-0.20;95039.00;;;;8368278;28;20217;-78
2023/12/02 10:22:11;;;;;;;11.27;5.07;;;;;-0.10;95040.00;;;;8368930;28;20290;-79
2023/12/02 10:26:17;;;;;;;16.43;6.83;;;;;-0.10;95049.00;;;;8366595;28;20200;-77
2023/12/02 10:30:23;;;;;;;15.73;6.07;;;;;-0.10;95054.00;;;;8367284;28;20921;-77
2023/12/02 10:34:34;;;;;;;14.20;7.23;;;;;-0.10;95072.00;;;;8372507;28;20311;-78
2023/12/02 10:38:49;;;;;;;5.63;3.50;;;;;0.00;95082.00;;;;8370390;28;20208;-77
2023/12/02 10:43:04;;;;;;;14.43;5.27;;;;;-0.10;95094.00;;;;8371809;28;20203;-77
2023/12/02 10:47:07;;;;;;;19.10;9.10;;;;;-0.20;95096.00;;;;8372659;28;20299;-78
2023/12/02 10:51:15;;;;;;;16.93;7.77;;;;;-0.20;95113.00;;;;8374098;28;20321;-78
2023/12/02 10:55:18;;;;;;;7.90;4.37;;;;;-0.10;95130.00;;;;8372798;28;20204;-78
2023/12/02 10:59:22;;;;;;;13.80;5.77;;;;;-0.20;95126.00;;;;8374086;28;21049;-80
2023/12/02 11:03:30;;;;;;;14.83;6.57;;;;;-0.10;95118.00;;;;8367807;28;20230;-80
2023/12/02 11:07:35;;;;;;;8.43;3.73;;;;;-0.10;95120.00;;;;8369240;28;20198;-78
2023/12/02 11:11:49;;;;;;;6.47;4.23;;;;;-0.20;95128.00;;;;8368642;28;20224;-79
2023/12/02 11:16:20;;;;;;;15.63;5.40;;;;;-0.30;95122.00;;;;8372352;28;20200;-79
2023/12/02 11:20:27;;;;;;;7.57;3.70;;;;;-0.30;95122.00;;;;8370814;28;20745;-79
2023/12/02 11:24:45;;;;;;;10.23;3.93;;;;;-0.40;95122.00;;;;8373339;28;20220;-79
2023/12/02 11:29:02;;;;;;;9.60;5.90;;;;;-0.40;95108.00;;;;8367798;28;20211;-80
2023/12/02 11:33:28;;;;;;;10.23;2.93;;;;;-0.30;95112.00;;;;8366958;28;20296;-80
2023/12/02 11:37:49;;;;;;;6.80;4.57;;;;;-0.20;95099.00;;;;8368278;28;20200;-82
2023/12/02 11:41:57;;;;;;;4.10;3.40;;;;;-0.20;95097.00;;;;8372409;28;20612;-81
2023/12/02 11:46:08;;;;;;;2.83;2.03;;;;;-0.20;95090.00;;;;8370909;28;20814;-79
2023/12/02 11:50:23;;;;;;;9.37;5.37;;;;;-0.30;95094.00;;;;8370898;28;20214;-79
2023/12/02 11:54:32;;;;;;;5.77;3.53;;;;;-0.30;95106.00;;;;8371688;28;20664;-78
2023/12/02 11:58:50;;;;;;;6.43;4.70;;;;;-0.40;95112.00;;;;8370981;28;20691;-78
2023/12/02 12:03:10;;;;;;;8.63;3.97;;;;;-0.40;95119.00;;;;8368112;28;20234;-80
2023/12/02 12:07:29;;;;;;;5.67;3.67;;;;;-0.50;95130.00;;;;8371404;28;20669;-79
2023/12/02 12:11:34;;;;;;;7.90;4.27;;;;;-0.50;95159.00;;;;8369765;28;20208;-79
2023/12/02 12:15:39;;;;;;;14.50;4.47;;;;;-0.50;95160.00;;;;8370640;28;20233;-81
2023/12/02 12:19:42;;;;;;;6.13;3.47;;;;;-0.50;95177.00;;;;8368935;28;20632;-79
2023/12/02 12:23:47;;;;;;;15.00;6.53;;;;;-0.50;95189.00;;;;8371627;28;20321;-80
2023/12/02 12:27:51;;;;;;;9.67;2.90;;;;;-0.50;95213.00;;;;8367967;28;20308;-80
2023/12/02 12:31:59;;;;;;;10.27;4.60;;;;;-0.60;95226.00;;;;8367713;28;20741;-80
2023/12/02 12:36:03;;;;;;;7.70;3.63;;;;;-0.60;95241.00;;;;8372106;28;20280;-80
2023/12/02 12:40:09;;;;;;;6.30;3.63;;;;;-0.60;95253.00;;;;8369082;28;20698;-77
2023/12/02 12:44:13;;;;;;;8.23;5.70;;;;;-0.70;95262.00;;;;8368954;28;20291;-80
2023/12/02 12:48:24;;;;;;;12.77;6.57;;;;;-0.60;95272.00;;;;8366713;28;20209;-79
2023/12/02 12:52:28;;;;;;;11.43;5.40;;;;;-0.60;95286.00;;;;8369599;28;20195;-78
2023/12/02 12:56:41;;;;;;;11.57;5.63;;;;;-0.50;95287.00;;;;8368412;28;20197;-71
2023/12/02 13:00:46;;;;;;;10.20;5.63;;;;;-0.40;95294.00;;;;8374325;28;20643;-76
2023/12/02 13:04:59;;;;;;;17.33;6.37;;;;;-0.40;95303.00;;;;8371166;28;20200;-76
2023/12/02 13:09:07;;;;;;;15.40;6.83;;;;;-0.40;95315.00;;;;8373913;28;20200;-76
2023/12/02 13:13:13;;;;;;;20.73;7.47;;;;;-0.40;95317.00;;;;8377152;28;20196;-77
2023/12/02 13:17:17;;;;;;;13.00;5.97;;;;;-0.30;95329.00;;;;8374975;28;20683;-77
2023/12/02 13:21:23;;;;;;;13.30;6.17;;;;;-0.40;95329.00;;;;8374255;28;20267;-77
2023/12/02 13:25:29;;;;;;;8.80;4.50;;;;;-0.30;95344.00;;;;8376210;28;20302;-78
2023/12/02 13:29:34;;;;;;;9.70;5.27;;;;;-0.40;95356.00;;;;8374619;28;20304;-78
2023/12/02 13:33:50;;;;;;;10.60;4.83;;;;;-0.50;95365.00;;;;8369050;28;20196;-77
2023/12/02 13:38:09;;;;;;;18.10;6.50;;;;;-0.50;95360.00;;;;8373313;28;20197;-78
2023/12/02 13:42:12;;;;;;;10.20;5.00;;;;;-0.50;95365.00;;;;8372654;28;20231;-79
2023/12/02 13:46:18;;;;;;;18.00;7.50;;;;;-0.60;95372.00;;;;8373297;28;20200;-79
2023/12/02 13:50:23;;;;;;;12.10;5.47;;;;;-0.60;95373.00;;;;8372829;28;20212;-78
2023/12/02 13:54:38;;;;;;;15.93;5.60;;;;;-0.60;95381.00;;;;8372827;28;20219;-78
2023/12/02 13:58:48;;;;;;;9.23;5.00;;;;;-0.60;95381.00;;;;8371005;28;20208;-78
2023/12/02 14:03:04;;;;;;;17.73;8.07;;;;;-0.60;95384.00;;;;8372473;28;20326;-79
2023/12/02 14:07:20;;;;;;;19.23;8.33;;;;;-0.60;95388.00;;;;8370592;28;20196;-78
2023/12/02 14:11:36;;;;;;;17.63;7.73;;;;;-0.50;95402.00;;;;8372010;28;20687;-79
2023/12/02 14:16:11;;;;;;;15.77;6.77;;;;;-0.50;95403.00;;;;8372714;28;20325;-78
2023/12/02 14:20:42;;;;;;;21.40;8.13;;;;;-0.40;95416.00;;;;8368101;28;20817;-77
2023/12/02 14:25:15;;;;;;;15.37;6.77;;;;;-0.40;95434.00;;;;8370697;28;20697;-78
2023/12/02 14:29:36;;;;;;;15.00;7.03;;;;;-0.60;95433.00;;;;8351622;28;20743;-77
2023/12/02 14:34:12;;;;;;;13.50;6.20;;;;;-0.60;95439.00;;;;8368242;28;20200;-76
2023/12/02 14:38:38;;;;;;;10.33;5.30;;;;;-0.60;95447.00;;;;8367818;28;20569;-77
2023/12/02 14:42:55;;;;;;;12.93;5.33;;;;;-0.70;95452.00;;;;8369831;28;20231;-77
2023/12/02 14:47:02;;;;;;;18.30;6.33;;;;;-0.80;95460.00;;;;8372788;28;20226;-76
2023/12/02 14:51:06;;;;;;;13.77;5.87;;;;;-0.90;95466.00;;;;8371383;28;20914;-76
2023/12/02 14:55:11;;;;;;;74.20;28.13;;;;;-1.00;95472.00;;;;8370674;28;20192;-77
2023/12/02 14:59:15;;;;;;;15.73;5.47;;;;;-0.90;95482.00;;;;8372149;28;20288;-77
2023/12/02 15:03:20;;;;;;;13.93;6.23;;;;;-1.00;95493.00;;;;8373271;28;20742;-77
2023/12/02 15:07:25;;;;;;;60.70;30.10;;;;;-1.10;95499.00;;;;8372566;28;20198;-79
2023/12/02 15:11:30;;;;;;;18.00;8.80;;;;;-1.10;95509.00;;;;8370607;28;20203;-78
2023/12/02 15:15:37;;;;;;;465.93;166.03;;;;;-1.10;95507.00;;;;8370650;28;20746;-79
2023/12/02 15:19:46;;;;;;;65.27;30.37;;;;;-1.20;95522.00;;;;8367695;28;20318;-79
2023/12/02 15:23:49;;;;;;;15.50;7.23;;;;;-1.20;95531.00;;;;8365678;28;20238;-83
2023/12/02 15:27:53;;;;;;;10.73;5.83;;;;;-1.20;95536.00;;;;8373649;28;20304;-74
2023/12/02 15:31:56;;;;;;;16.73;7.73;;;;;-1.30;95538.00;;;;8370467;28;20231;-76
2023/12/02 15:36:01;;;;;;;34.63;19.23;;;;;-1.20;95551.00;;;;8373139;28;20765;-81
2023/12/02 15:40:05;;;;;;;21.27;9.80;;;;;-1.20;95547.00;;;;8371172;28;20258;-80
2023/12/02 15:44:08;;;;;;;18.53;8.30;;;;;-1.20;95553.00;;;;8372467;28;20235;-79
2023/12/02 15:48:11;;;;;;;15.07;6.97;;;;;-1.20;95557.00;;;;8371991;28;20198;-79
2023/12/02 15:52:16;;;;;;;18.03;8.27;;;;;-1.30;95569.00;;;;8370663;28;20195;-78
2023/12/02 15:56:22;;;;;;;14.10;6.77;;;;;-1.40;95578.00;;;;8373301;28;20235;-79
2023/12/02 16:00:25;;;;;;;14.63;6.90;;;;;-1.40;95587.00;;;;8372470;28;20193;-79
2023/12/02 16:04:28;;;;;;;13.63;6.03;;;;;-1.40;95594.00;;;;8373861;28;20225;-80
2023/12/02 16:08:33;;;;;;;13.23;6.20;;;;;-1.40;95611.00;;;;8371097;28;20184;-78
2023/12/02 16:12:36;;;;;;;15.23;7.17;;;;;-1.50;95612.00;;;;8371806;28;20200;-80
2023/12/02 16:16:43;;;;;;;8.33;4.60;;;;;-1.50;95631.00;;;;8364507;28;20321;-79
2023/12/02 16:20:47;;;;;;;14.00;7.50;;;;;-1.50;95640.00;;;;8362714;28;20397;-80
2023/12/02 16:24:51;;;;;;;15.53;6.80;;;;;-1.40;95644.00;;;;8371481;28;20350;-80
2023/12/02 16:33:02;;;;;;;13.63;6.67;;;;;-1.40;95670.00;;;;8353356;28;20258;-77
2023/12/02 16:37:06;;;;;;;13.17;6.63;;;;;-1.30;95681.00;;;;8364990;28;20200;-77
2023/12/02 16:41:11;;;;;;;13.60;6.83;;;;;-1.30;95688.00;;;;8363341;28;20220;-75
2023/12/02 16:45:16;;;;;;;15.90;7.17;;;;;-1.20;95698.00;;;;8363971;28;20869;-69
2023/12/02 16:49:20;;;;;;;14.80;7.27;;;;;-1.30;95707.00;;;;8367160;28;20833;-69
2023/12/02 16:53:25;;;;;;;14.80;7.13;;;;;-1.20;95725.00;;;;8366603;28;20223;-69
2023/12/02 16:57:30;;;;;;;14.60;7.63;;;;;-1.20;95722.00;;;;8365139;28;20201;-68
2023/12/02 17:01:39;;;;;;;14.47;6.43;;;;;-1.20;95730.00;;;;8364363;28;20235;-67
2023/12/02 17:06:05;;;;;;;14.90;6.73;;;;;-1.20;95749.00;;;;8365424;28;20203;-68
2023/12/02 17:10:51;;;;;;;11.93;5.67;;;;;-1.20;95750.00;;;;8388140;28;20192;-69
2023/12/02 17:15:05;;;;;;;88.73;33.07;;;;;-1.20;95761.00;;;;8400870;28;20195;-68
2023/12/02 17:19:09;;;;;;;28.63;12.00;;;;;-1.20;95775.00;;;;8401197;28;20617;-69
2023/12/02 17:23:13;;;;;;;69.07;25.43;;;;;-1.20;95788.00;;;;8402151;28;20215;-70
2023/12/02 17:27:39;;;;;;;100.37;33.87;;;;;-1.20;95784.00;;;;8401911;28;20239;-71
2023/12/02 17:31:44;;;;;;;50.67;21.10;;;;;-1.20;95794.00;;;;8401464;28;20596;-71
2023/12/02 17:35:47;;;;;;;23.87;12.73;;;;;-1.20;95796.00;;;;8401579;28;20535;-70
2023/12/02 17:39:50;;;;;;;14.20;7.20;;;;;-1.20;95807.00;;;;8401972;28;20629;-69
2023/12/02 17:43:53;;;;;;;14.40;7.03;;;;;-1.20;95817.00;;;;8401016;28;20332;-71
2023/12/02 17:47:58;;;;;;;14.80;9.37;;;;;-1.20;95829.00;;;;8400470;28;20196;-72
2023/12/02 17:52:04;;;;;;;16.13;8.07;;;;;-1.30;95841.00;;;;8400881;28;20242;-69
2023/12/02 17:56:09;;;;;;;12.77;7.07;;;;;-1.30;95847.00;;;;8401692;28;20509;-70
2023/12/02 18:00:13;;;;;;;9.90;6.10;;;;;-1.30;95850.00;;;;8400939;28;20599;-69
2023/12/02 18:04:17;;;;;;;9.70;4.93;;;;;-1.30;95859.00;;;;8401881;28;20281;-70
2023/12/02 18:08:21;;;;;;;13.60;8.67;;;;;-1.30;95864.00;;;;8400562;28;20283;-69
2023/12/02 18:12:24;;;;;;;24.47;16.37;;;;;-1.30;95870.00;;;;8402451;28;20195;-69
2023/12/02 18:16:28;;;;;;;10.00;5.00;;;;;-1.30;95883.00;;;;8400616;28;20218;-69
2023/12/02 18:20:33;;;;;;;12.33;7.80;;;;;-1.30;95885.00;;;;8400911;28;20198;-70
2023/12/02 18:24:41;;;;;;;11.97;6.77;;;;;-1.30;95903.00;;;;8400457;28;20212;-70
2023/12/02 18:28:45;;;;;;;12.43;5.97;;;;;-1.30;95911.00;;;;8402648;28;20176;-70
2023/12/02 18:32:48;;;;;;;8.83;4.47;;;;;-1.30;95916.00;;;;8400670;28;20287;-70
2023/12/02 18:36:53;;;;;;;8.37;4.67;;;;;-1.40;95920.00;;;;8399854;28;20188;-69
2023/12/02 18:40:56;;;;;;;9.77;4.10;;;;;-1.40;95932.00;;;;8400549;28;20200;-70
2023/12/02 18:44:59;;;;;;;9.60;3.80;;;;;-1.40;95930.00;;;;8399648;28;20322;-70
2023/12/02 18:49:03;;;;;;;11.90;6.03;;;;;-1.40;95951.00;;;;8400340;28;20232;-70
2023/12/02 18:53:08;;;;;;;8.00;4.93;;;;;-1.40;95947.00;;;;8400261;28;20192;-70
2023/12/02 18:57:11;;;;;;;10.17;5.47;;;;;-1.40;95965.00;;;;8400339;28;20234;-70
2023/12/02 19:01:14;;;;;;;14.33;6.60;;;;;-1.40;95966.00;;;;8399278;28;20228;-70
2023/12/02 19:05:20;;;;;;;12.23;6.63;;;;;-1.40;95976.00;;;;8399437;28;20633;-71
2023/12/02 19:09:27;;;;;;;13.67;7.43;;;;;-1.50;95988.00;;;;8400547;28;20309;-71
2023/12/02 19:13:32;;;;;;;5.47;3.93;;;;;-1.50;95988.00;;;;8398468;28;20199;-71
2023/12/02 19:17:36;;;;;;;17.30;8.17;;;;;-1.60;95999.00;;;;8398504;28;20212;-70
2023/12/02 19:21:39;;;;;;;16.70;7.77;;;;;-1.60;96008.00;;;;8398760;28;20549;-71
2023/12/02 19:25:45;;;;;;;11.63;6.20;;;;;-1.60;96018.00;;;;8398483;28;20283;-70
2023/12/02 19:29:48;;;;;;;15.93;6.60;;;;;-1.60;96018.00;;;;8399086;28;20224;-71
2023/12/02 19:33:52;;;;;;;15.10;7.50;;;;;-1.70;96034.00;;;;8399067;28;20622;-71
2023/12/02 19:37:58;;;;;;;4.20;3.50;;;;;-1.70;96037.00;;;;8398479;28;20203;-71
2023/12/02 19:42:03;;;;;;;9.90;4.50;;;;;-1.80;96051.00;;;;8398219;28;20239;-70
2023/12/02 19:46:07;;;;;;;14.17;7.53;;;;;-1.80;96048.00;;;;8399332;28;20299;-72
2023/12/02 19:50:12;;;;;;;9.97;5.97;;;;;-1.90;96066.00;;;;8397164;28;20238;-72
2023/12/02 19:54:16;;;;;;;17.10;6.80;;;;;-1.90;96069.00;;;;8398760;28;20200;-71
2023/12/02 19:58:22;;;;;;;632.03;183.20;;;;;-1.90;96073.00;;;;8398538;28;20624;-72
2023/12/02 20:02:25;;;;;;;33.17;17.23;;;;;-2.00;96087.00;;;;8397985;28;20200;-72
2023/12/02 20:06:28;;;;;;;15.87;8.83;;;;;-1.90;96096.00;;;;8397725;28;20188;-71
2023/12/02 20:10:31;;;;;;;10.67;5.93;;;;;-2.00;96097.00;;;;8397621;28;20246;-71
2023/12/02 20:14:36;;;;;;;14.50;8.43;;;;;-2.10;96109.00;;;;8398014;28;20192;-71
2023/12/02 20:18:40;;;;;;;25.73;21.20;;;;;-2.10;96113.00;;;;8397270;28;20278;-71
2023/12/02 20:22:43;;;;;;;6.10;5.37;;;;;-2.10;96128.00;;;;8397911;28;20254;-71
2023/12/02 20:26:47;;;;;;;34.80;25.90;;;;;-2.20;96134.00;;;;8398051;28;20705;-71
2023/12/02 20:30:53;;;;;;;8.63;6.97;;;;;-2.20;96142.00;;;;8398425;28;20232;-71